Latest Weather Observations for Launceston Airport

IDT60801

Issued at 11:02 am EDT Friday 6 March 2015 (issued every 30 minutes, with the page automatically refreshed every 10 minutes)

About weather observations | Map of weather stations | Latest weather observations for TAS | Other Formats
Station Details ID: 091311 Name: LAUNCESTON AIRPORT Lat: -41.55 Lon: 147.21 Height: 166.9 m
Data from the previous 72 hours. | See also: Recent months at Launceston Airport
Date/Time
EDT
Temp
°C
App
Temp
°C
Dew
Point
Rel
Hum
%
Delta-T
°C
Wind Press
QNH
hPa
Press
MSL
hPa
Rain
since 9 am
mm
Dir
 
Spd
km/h
Gust
km/h
Spd
kts
Gust
kts
06/11:00am 16.7 7.4 0.4 33 7.2 S 39 50 21 27 1001.2 1000.9 0.0
06/10:32am 15.8 7.1 -0.8 32 7.0 SSE 35 57 19 31 1001.3 1001.0 0.0
06/10:30am 16.4 8.5 2.1 38 6.5 SSE 33 46 18 25 1001.2 1000.9 0.0
06/10:06am 16.2 8.0 0.3 34 6.9 S 33 52 18 28 1000.7 1000.4 0.0
06/10:00am 16.1 7.9 0.3 34 6.9 S 33 46 18 25 1000.5 1000.2 0.0
06/09:41am 15.9 8.6 -0.3 33 6.9 S 28 46 15 25 999.5 999.1 0.0
06/09:30am 15.8 8.8 1.9 39 6.2 SSE 28 37 15 20 999.3 999.0 0.0
06/09:00am 15.4 7.1 2.2 41 6.0 S 35 48 19 26 998.6 998.3 0.2
06/08:30am 15.4 7.0 3.5 45 5.5 SSE 37 50 20 27 997.3 997.0 0.2
06/08:21am 15.3 4.8 3.5 45 5.4 S 48 69 26 37 996.8 996.5 0.2
06/08:00am 15.3 3.0 2.1 41 6.0 SSW 56 82 30 44 995.2 994.8 0.2
06/07:30am 15.7 5.1 3.2 43 5.7 SSW 48 72 26 39 994.6 994.2 0.2
06/07:29am 15.7 5.5 3.2 43 5.8 SSW 46 72 25 39 994.6 994.2 0.2
06/07:00am 15.9 8.4 4.3 46 5.5 SSW 33 52 18 28 995.1 994.7 0.2
06/06:57am 16.1 8.7 4.2 45 5.6 SSW 32 52 17 28 995.0 994.6 0.2
06/06:54am 16.2 9.2 4.3 45 5.6 S 30 44 16 24 995.0 994.6 0.2
06/06:30am 15.3 10.9 4.7 49 5.0 S 17 26 9 14 994.9 994.5 0.2
06/05:30am 15.5 11.3 5.7 52 4.7 W 17 24 9 13 994.0 993.6 0.2
06/05:00am 12.7 10.1 6.3 65 3.1 NW 9 17 5 9 994.3 993.9 0.2
06/04:30am 14.1 9.4 6.2 59 3.8 NW 20 30 11 16 994.0 993.6 0.2
06/04:00am 14.5 7.9 6.1 57 4.1 NW 30 37 16 20 994.2 993.8 0.2
06/03:30am 13.9 7.0 6.3 60 3.7 NW 32 39 17 21 994.6 994.2 0.2
06/03:00am 12.1 4.5 7.4 73 2.3 NW 37 46 20 25 995.0 994.6 0.2
06/02:30am 12.1 4.4 7.0 71 2.5 NW 37 46 20 25 995.3 995.0 0.2
06/02:00am 12.2 5.4 6.7 69 2.7 NW 32 41 17 22 997.0 996.7 0.2
06/01:30am 11.8 4.7 6.5 70 2.5 NW 33 43 18 23 997.3 997.0 0.2
06/01:00am 11.7 3.8 6.0 68 2.7 NNW 37 46 20 25 997.5 997.2 0.2
06/12:30am 11.4 3.7 5.5 67 2.7 NNW 35 44 19 24 998.5 998.2 0.2
 
Date/Time
EDT
Temp
°C
App
Temp
°C
Dew
Point
Rel
Hum
%
Delta-T
°C
Wind Press
QNH
hPa
Press
MSL
hPa
Rain
since 9 am
mm
Dir
 
Spd
km/h
Gust
km/h
Spd
kts
Gust
kts
05/11:30pm 11.2 4.0 5.1 66 2.8 NNW 32 43 17 23 1000.0 999.6 0.2
05/11:00pm 11.3 3.8 4.5 63 3.1 NNW 33 43 18 23 1001.0 1000.7 0.2
05/10:30pm 11.3 3.4 4.3 62 3.2 NNW 35 46 19 25 1001.5 1001.2 0.2
05/10:00pm 11.3 4.3 4.1 61 3.3 NNW 30 41 16 22 1002.0 1001.7 0.2
05/09:30pm 11.4 4.0 3.9 60 3.4 NNW 32 39 17 21 1002.8 1002.5 0.2
05/09:00pm 11.5 4.4 3.3 57 3.7 NNW 30 39 16 21 1003.3 1003.0 0.2
05/08:53pm 11.6 3.5 3.1 56 3.8 NNW 35 54 19 29 1003.0 1002.7 0.2
05/08:30pm 11.5 3.9 3.0 56 3.7 NNW 32 41 17 22 1002.8 1002.5 0.2
05/08:08pm 11.4 4.5 2.7 55 3.8 NNW 28 46 15 25 1003.5 1003.2 0.2
05/08:00pm 11.5 5.0 2.5 54 3.9 NW 26 35 14 19 1003.8 1003.5 0.2
05/07:30pm 11.9 3.6 2.1 51 4.3 NW 35 50 19 27 1004.1 1003.8 0.2
05/07:00pm 12.8 4.3 0.9 44 5.1 WNW 35 50 19 27 1004.5 1004.2 0.2
05/06:50pm 13.5 5.5 0.2 40 5.6 WNW 32 50 17 27 1004.8 1004.5 0.2
05/06:30pm 13.5 6.1 -0.9 37 5.9 WNW 28 37 15 20 1005.0 1004.7 0.2
05/06:09pm 13.9 6.4 -1.3 35 6.2 WNW 28 46 15 25 1005.3 1005.0 0.2
05/06:00pm 13.7 4.8 -1.9 34 6.3 WNW 35 44 19 24 1005.5 1005.3 0.2
05/05:40pm 14.7 5.2 -1.0 34 6.5 WNW 39 57 21 31 1005.7 1005.4 0.2
05/05:30pm 14.3 5.9 -0.9 35 6.3 WNW 33 43 18 23 1005.7 1005.4 0.2
05/05:15pm 15.3 6.7 -2.2 30 7.1 WNW 33 56 18 30 1005.8 1005.5 0.2
05/05:00pm 15.8 6.2 -1.7 30 7.3 WNW 39 56 21 30 1006.0 1005.7 0.2
05/04:31pm 16.3 8.6 -0.4 32 7.1 W 30 48 16 26 1006.0 1005.7 0.2
05/04:30pm 15.9 7.7 -0.8 32 7.1 W 32 48 17 26 1006.0 1005.7 0.2
05/04:14pm 15.1 7.3 -1.0 33 6.7 NW 30 52 16 28 1006.1 1005.8 0.2
05/04:00pm 16.3 8.2 0.0 33 7.1 WNW 32 43 17 23 1006.3 1006.0 0.2
05/03:30pm 16.1 7.7 -1.0 31 7.2 WNW 33 41 18 22 1006.8 1006.5 0.2
05/03:00pm 16.6 9.0 -2.5 27 7.9 W 28 43 15 23 1007.1 1006.8 0.2
05/02:42pm 17.2 9.6 -1.9 27 8.0 W 28 48 15 26 1007.2 1006.9 0.2
05/02:30pm 16.5 9.2 -3.0 26 7.9 W 26 39 14 21 1007.4 1007.1 0.2
05/02:00pm 15.0 8.0 -3.3 28 7.3 WNW 24 43 13 23 1007.4 1007.1 0.2
05/01:30pm 16.9 9.9 -3.2 25 8.1 WSW 24 37 13 20 1007.6 1007.3 0.0
05/01:00pm 16.6 8.8 -3.5 25 8.1 SW 28 39 15 21 1007.9 1007.6 0.0
05/12:30pm 15.2 6.8 -2.2 30 7.1 SSW 32 44 17 24 1008.7 1008.4 0.0
05/12:00pm 14.5 6.1 -2.8 30 6.9 SW 32 43 17 23 1008.3 1008.0 0.0
05/11:30am 13.0 5.5 -1.7 36 5.9 SSW 28 43 15 23 1008.6 1008.3 0.0
05/11:15am 12.5 4.9 -2.5 35 5.9 SW 28 46 15 25 1008.6 1008.3 0.0
05/11:00am 12.8 6.0 -1.9 36 5.9 S 24 39 13 21 1008.7 1008.4 0.0
05/10:30am 12.3 3.3 -2.7 35 5.9 SW 35 50 19 27 1008.2 1007.9 0.0
05/10:00am 11.5 4.6 0.0 45 4.8 SSW 26 41 14 22 1007.8 1007.5 0.0
05/09:30am 10.1 1.9 -0.7 47 4.3 SW 32 48 17 26 1007.6 1007.3 0.0
05/09:00am 11.0 4.0 -0.5 45 4.7 WSW 26 37 14 20 1006.4 1006.1 0.0
05/08:30am 11.0 5.8 0.4 48 4.4 SW 17 22 9 12 1006.1 1005.8 0.0
05/08:00am 9.0 3.4 0.2 54 3.6 WSW 19 24 10 13 1005.2 1004.9 0.0
05/07:30am 8.9 2.4 0.1 54 3.5 SW 24 32 13 17 1004.4 1004.1 0.0
05/07:00am 9.3 1.2 -0.3 51 3.9 WSW 32 43 17 23 1003.1 1002.8 0.0
05/06:30am 9.3 1.9 -0.8 49 4.0 WSW 28 39 15 21 1001.8 1001.5 0.0
05/06:00am 9.3 1.6 -0.3 51 3.9 WSW 30 41 16 22 1001.2 1000.9 0.0
05/05:30am 9.9 1.8 1.0 54 3.7 WSW 33 46 18 25 1000.7 1000.4 0.0
05/05:24am 10.1 3.0 1.2 54 3.7 WSW 28 46 15 25 1000.5 1000.2 0.0
05/05:00am 9.9 4.0 1.5 56 3.6 WSW 22 44 12 24 999.7 999.3 0.0
05/04:30am 9.4 4.6 4.6 72 2.2 WSW 19 24 10 13 999.1 998.8 0.0
05/04:00am 10.8 4.8 3.4 60 3.3 W 24 33 13 18 998.6 998.3 0.0
05/03:30am 11.1 4.9 4.1 62 3.2 W 26 39 14 21 997.9 997.6 0.0
05/03:00am 11.6 6.9 5.3 65 3.0 WNW 19 24 10 13 997.8 997.5 0.0
05/02:30am 11.6 6.8 5.5 66 2.8 WNW 20 28 11 15 997.8 997.5 0.0
05/02:00am 12.3 6.8 6.1 66 3.0 NW 24 35 13 19 997.9 997.6 0.0
05/01:30am 12.0 7.2 7.3 73 2.3 NW 22 30 12 16 998.2 997.9 0.0
05/01:00am 12.0 7.9 8.5 79 1.8 NNW 20 26 11 14 998.2 997.9 0.0
05/12:30am 12.6 8.2 9.1 79 1.8 NNW 22 28 12 15 998.3 998.0 0.0
05/12:00am 12.3 7.6 9.3 82 1.5 NNW 24 30 13 16 998.6 998.3 0.0
 
Date/Time
EDT
Temp
°C
App
Temp
°C
Dew
Point
Rel
Hum
%
Delta-T
°C
Wind Press
QNH
hPa
Press
MSL
hPa
Rain
since 9 am
mm
Dir
 
Spd
km/h
Gust
km/h
Spd
kts
Gust
kts
04/11:30pm 12.3 7.5 8.8 79 1.8 NNW 24 35 13 19 998.9 998.6 0.0
04/11:00pm 12.8 7.3 9.3 79 1.8 NW 28 39 15 21 999.3 999.0 0.0
04/10:30pm 12.4 8.6 11.1 92 0.7 NNW 22 30 12 16 1000.2 999.8 0.0
04/10:00pm 12.4 8.3 10.1 86 1.2 NNW 22 32 12 17 1000.5 1000.2 0.0
04/09:51pm 12.5 8.0 10.2 86 1.2 NNW 24 32 13 17 1000.8 1000.5 0.0
04/09:36pm 13.1 6.9 9.4 78 1.9 NW 32 46 17 25 1001.1 1000.8 0.0
04/09:30pm 14.3 8.0 8.9 70 2.8 NW 32 41 17 22 1001.2 1000.9 0.0
04/09:00pm 14.8 8.6 7.8 63 3.5 NNW 30 39 16 21 1000.9 1000.6 0.0
04/08:38pm 15.0 9.2 7.8 62 3.6 NNW 28 46 15 25 1001.3 1001.0 0.0
04/08:30pm 15.3 8.4 7.3 59 4.0 NNW 33 41 18 22 1001.5 1001.2 0.0
04/08:00pm 15.7 9.5 9.4 66 3.3 NNW 32 41 17 22 1001.6 1001.3 0.0
04/07:30pm 16.3 9.2 9.5 64 3.6 NNW 37 46 20 25 1001.3 1001.0 0.0
04/07:08pm 16.9 9.7 9.1 60 4.1 NNW 37 59 20 32 1001.3 1001.0 0.0
04/07:00pm 16.8 9.8 10.0 64 3.6 NNW 37 50 20 27 1001.4 1001.1 0.0
04/06:30pm 17.1 10.5 11.2 68 3.2 NNW 37 46 20 25 1001.5 1001.2 0.0
04/06:00pm 17.5 10.0 10.9 65 3.6 NNW 41 52 22 28 1001.9 1001.6 0.0
04/05:30pm 18.9 10.5 9.7 55 4.9 NNW 44 59 24 32 1002.0 1001.7 0.0
04/05:21pm 19.5 11.7 9.7 53 5.3 NNW 41 59 22 32 1002.1 1001.8 0.0
04/05:00pm 19.3 11.9 9.8 54 5.1 NNW 39 52 21 28 1002.1 1001.8 0.0
04/04:30pm 20.6 13.6 10.1 51 5.7 NNW 37 52 20 28 1002.7 1002.4 0.0
04/04:00pm 20.7 12.4 9.3 48 6.1 NNW 43 59 23 32 1002.8 1002.5 0.0
04/03:54pm 20.9 13.1 9.8 49 6.0 NNW 41 59 22 32 1002.7 1002.4 0.0
04/03:30pm 20.1 12.8 10.2 53 5.4 NNW 39 50 21 27 1003.1 1002.8 0.0
04/03:16pm 19.4 12.0 9.9 54 5.1 NNW 39 57 21 31 1003.2 1002.9 0.0
04/03:00pm 20.2 12.6 10.6 54 5.3 NNW 41 54 22 29 1003.5 1003.2 0.0
04/02:30pm 22.0 13.9 9.9 46 6.6 NNW 43 56 23 30 1004.0 1003.7 0.0
04/02:13pm 20.2 13.5 9.7 51 5.7 NW 35 54 19 29 1004.4 1004.1 0.0
04/02:00pm 22.6 15.3 8.7 41 7.5 NW 37 54 20 29 1004.5 1004.2 0.0
04/01:35pm 19.9 12.9 8.3 47 6.1 NNW 35 59 19 32 1004.7 1004.4 0.0
04/01:30pm 19.3 13.0 9.8 54 5.1 NNW 33 43 18 23 1004.7 1004.4 0.0
04/01:00pm 20.3 13.2 9.5 50 5.8 NNW 37 48 20 26 1005.3 1005.0 0.0
04/12:30pm 18.9 11.6 8.6 51 5.4 NNW 37 44 20 24 1006.4 1006.1 0.0
04/12:19pm 19.2 11.5 8.8 51 5.5 NNW 39 57 21 31 1006.6 1006.3 0.0
04/12:00pm 19.3 11.1 8.0 48 5.9 NW 41 54 22 29 1006.6 1006.3 0.0
04/11:30am 18.9 10.7 8.3 50 5.5 NW 41 59 22 32 1006.9 1006.6 0.0
04/11:19am 18.9 10.1 7.4 47 5.9 NW 43 61 23 33 1006.9 1006.6 0.0
04/11:00am 18.9 10.7 8.3 50 5.5 NNW 41 54 22 29 1007.1 1006.8 0.0
04/10:30am 16.7 8.7 7.6 55 4.6 NW 39 54 21 29 1007.8 1007.5 0.0
04/10:00am 17.1 9.0 7.2 52 5.0 NW 39 50 21 27 1007.9 1007.6 0.0
04/09:30am 15.8 8.6 7.6 58 4.1 NW 35 46 19 25 1008.2 1007.9 0.0
04/09:00am 15.3 8.7 7.8 61 3.8 NNW 32 43 17 23 1008.3 1008.0 0.0
04/08:30am 14.3 7.5 7.8 65 3.3 NNW 33 41 18 22 1008.2 1007.9 0.0
04/08:00am 13.4 7.1 7.4 67 3.0 NNW 30 41 16 22 1008.4 1008.1 0.0
04/07:30am 12.1 6.4 6.8 70 2.6 NNW 26 33 14 18 1008.4 1008.1 0.0
04/07:00am 11.7 6.2 6.0 68 2.7 NNW 24 32 13 17 1008.4 1008.1 0.0
04/06:30am 12.2 6.6 5.4 63 3.2 NNW 24 35 13 19 1008.4 1008.1 0.0
04/06:00am 11.9 4.8 5.5 65 3.0 NNW 32 41 17 22 1008.5 1008.2 0.0
04/05:30am 11.4 5.0 5.1 65 2.9 NNW 28 41 15 22 1008.4 1008.1 0.0
04/05:00am 11.5 5.1 5.4 66 2.8 NNW 28 37 15 20 1008.6 1008.3 0.0
04/04:30am 11.8 4.7 5.4 65 3.0 NNW 32 41 17 22 1008.7 1008.4 0.0
04/04:00am 11.9 6.2 5.1 63 3.2 NNW 24 33 13 18 1009.2 1008.9 0.0
04/03:30am 11.7 6.5 5.6 66 2.9 NNW 22 32 12 17 1009.6 1009.3 0.0
04/03:00am 10.7 5.7 4.8 67 2.7 NNW 20 32 11 17 1009.9 1009.6 0.0
04/02:30am 10.7 6.0 5.0 68 2.6 N 19 22 10 12 1010.3 1010.0 0.0
04/02:00am 10.9 6.5 4.8 66 2.8 N 17 22 9 12 1010.9 1010.7 0.0
04/01:30am 10.2 5.3 4.1 66 2.7 N 19 20 10 11 1011.2 1011.0 0.0
04/01:00am 10.6 5.5 4.3 65 2.8 NNW 20 24 11 13 1011.4 1011.2 0.0
04/12:30am 9.4 5.2 3.6 67 2.5 NNW 15 20 8 11 1011.8 1011.6 0.0
04/12:00am 10.1 5.4 3.2 62 3.0 N 17 19 9 10 1012.1 1011.8 0.0
 
Date/Time
EDT
Temp
°C
App
Temp
°C
Dew
Point
Rel
Hum
%
Delta-T
°C
Wind Press
QNH
hPa
Press
MSL
hPa
Rain
since 9 am
mm
Dir
 
Spd
km/h
Gust
km/h
Spd
kts
Gust
kts
03/11:30pm 11.2 6.0 3.5 59 3.4 NNW 20 28 11 15 1012.4 1012.1 0.0
03/11:00pm 12.3 5.0 2.7 52 4.2 NW 30 39 16 21 1012.7 1012.4 0.0
03/10:30pm 12.3 6.6 2.7 52 4.2 NW 22 35 12 19 1012.6 1012.3 0.0
03/10:00pm 12.6 7.4 2.7 51 4.4 NW 19 32 10 17 1012.7 1012.4 0.0
03/09:30pm 13.5 8.3 3.6 51 4.5 NW 20 26 11 14 1012.4 1012.1 0.0
03/09:00pm 13.0 8.5 5.9 62 3.4 NNW 19 20 10 11 1012.1 1011.8 0.0
03/08:30pm 14.4 8.7 6.5 59 3.8 NNW 26 35 14 19 1011.6 1011.4 0.0
03/08:00pm 15.0 8.9 6.8 58 4.0 NNW 28 35 15 19 1011.2 1011.0 0.0
03/07:30pm 16.0 9.9 6.4 53 4.7 NNW 28 37 15 20 1011.4 1011.2 0.0
03/07:00pm 17.0 10.0 6.2 49 5.3 NNW 32 39 17 21 1011.4 1011.2 0.0
03/06:30pm 17.8 10.7 6.3 47 5.7 NNW 33 43 18 23 1011.5 1011.3 0.0
03/06:00pm 18.3 10.5 6.8 47 5.8 NNW 37 48 20 26 1011.4 1011.2 0.0
03/05:30pm 17.8 9.5 6.3 47 5.7 NNW 39 48 21 26 1011.6 1011.4 0.0
03/05:00pm 19.7 11.9 6.8 43 6.6 NNW 37 50 20 27 1011.5 1011.3 0.0
03/04:30pm 20.2 11.8 5.4 38 7.3 NNW 39 50 21 27 1011.7 1011.5 0.0
03/04:00pm 20.7 13.4 5.5 37 7.6 NNW 33 46 18 25 1012.0 1011.7 0.0
03/03:30pm 21.3 13.9 4.8 34 8.2 NNW 33 44 18 24 1012.2 1011.9 0.0
03/03:01pm 22.0 15.6 5.0 33 8.5 NNW 28 46 15 25 1012.6 1012.3 0.0
03/03:00pm 21.6 14.5 3.8 31 8.7 NNW 30 46 16 25 1012.6 1012.3 0.0
03/02:57pm 21.7 15.0 3.4 30 8.8 NNW 28 46 15 25 1012.6 1012.3 0.0
03/02:30pm 22.2 16.6 3.3 29 9.1 NW 22 39 12 21 1013.0 1012.7 0.0
03/02:00pm 20.4 15.2 2.3 30 8.5 WNW 19 33 10 18 1013.2 1012.9 0.0
03/01:30pm 20.6 14.6 3.3 32 8.3 NNW 24 33 13 18 1013.5 1013.2 0.0
03/01:00pm 21.4 16.3 4.0 32 8.5 NW 20 32 11 17 1013.8 1013.5 0.0
03/12:30pm 18.2 13.1 2.9 36 7.1 WNW 19 28 10 15 1014.1 1013.8 0.0
03/12:00pm 20.1 17.2 6.4 41 6.9 N 11 22 6 12 1014.4 1014.1 0.0
03/11:30am 18.0 14.6 5.9 45 6.0 NW 13 22 7 12 1014.8 1014.5 0.0

Other Formats:

Comma delimited format used in spreadsheet applications
http://www.bom.gov.au/fwo/IDT60801/IDT60801.95966.axf

JavaScript Object Notation format (JSON) in row-major order
http://www.bom.gov.au/fwo/IDT60801/IDT60801.95966.json